Time;durP1;ratioP1;P1;durP2;ratioP2;P2;SDS_P1;SDS_P2;PMS_P1;PMS_P2;Temp;Humidity;BMP_temperature;BMP_pressure;BME280_temperature;BME280_humidity;BME280_pressure;Samples;Min_cycle;Max_cycle;Signal;HPM_P1;HPM_P2
2022/11/23 00:01:18;;;;;;;32.50;16.70;;;2.30;99.90;;;;;;5013535;28;23078;-48
2022/11/23 00:03:47;;;;;;;27.53;17.27;;;2.30;99.90;;;;;;5021910;28;20215;-46
2022/11/23 00:06:14;;;;;;;31.13;17.63;;;2.30;99.90;;;;;;5018272;28;20833;-49
2022/11/23 00:08:40;;;;;;;31.40;16.63;;;2.30;99.90;;;;;;5023527;28;20594;-47
2022/11/23 00:11:09;;;;;;;31.70;17.50;;;2.30;99.90;;;;;;5005218;28;20204;-51
2022/11/23 00:13:38;;;;;;;34.47;17.47;;;2.30;99.90;;;;;;5012999;28;20203;-51
2022/11/23 00:16:06;;;;;;;35.10;16.67;;;2.30;99.90;;;;;;5016749;28;20687;-54
2022/11/23 00:18:32;;;;;;;33.07;17.57;;;2.30;99.90;;;;;;5020879;28;20703;-49
2022/11/23 00:20:59;;;;;;;30.83;18.07;;;2.30;99.90;;;;;;5021270;28;20203;-54
2022/11/23 00:23:26;;;;;;;29.57;16.47;;;2.40;99.90;;;;;;5020358;28;20200;-52
2022/11/23 00:25:53;;;;;;;28.90;16.40;;;2.30;99.90;;;;;;5008348;28;20322;-55
2022/11/23 00:28:21;;;;;;;33.03;18.80;;;2.40;99.90;;;;;;5020037;28;20199;-49
2022/11/23 00:30:49;;;;;;;33.17;17.80;;;2.40;99.90;;;;;;5017018;28;20567;-51
2022/11/23 00:33:17;;;;;;;31.47;16.90;;;2.40;99.90;;;;;;5013362;28;20257;-50
2022/11/23 00:35:43;;;;;;;31.70;17.60;;;2.40;99.90;;;;;;5022222;28;20579;-47
2022/11/23 00:38:10;;;;;;;29.37;16.93;;;2.40;99.90;;;;;;5019065;28;20207;-48
2022/11/23 00:40:37;;;;;;;34.80;17.80;;;2.40;99.90;;;;;;5023571;28;20224;-47
2022/11/23 00:43:04;;;;;;;33.00;17.17;;;2.50;99.90;;;;;;5006101;28;20215;-51
2022/11/23 00:45:32;;;;;;;28.07;16.27;;;2.40;99.90;;;;;;5015910;28;20611;-47
2022/11/23 00:47:58;;;;;;;27.73;16.37;;;2.40;99.90;;;;;;5013508;28;20673;-52
2022/11/23 00:50:26;;;;;;;32.50;17.47;;;2.40;99.90;;;;;;5021278;28;20759;-46
2022/11/23 00:52:52;;;;;;;28.93;17.30;;;2.50;99.90;;;;;;5021432;28;20640;-48
2022/11/23 00:55:20;;;;;;;32.73;16.90;;;2.50;99.90;;;;;;5019930;28;20211;-46
2022/11/23 00:57:46;;;;;;;28.77;16.00;;;2.50;99.90;;;;;;5008684;28;20699;-49
2022/11/23 01:00:14;;;;;;;29.20;16.27;;;2.50;99.90;;;;;;5019119;28;20238;-47
2022/11/23 01:02:43;;;;;;;30.87;16.83;;;2.50;99.90;;;;;;5015821;28;20212;-50
2022/11/23 01:05:10;;;;;;;33.70;17.13;;;2.50;99.90;;;;;;5013020;28;20230;-50
2022/11/23 01:07:37;;;;;;;28.33;16.17;;;2.50;99.90;;;;;;5022233;28;20736;-48
2022/11/23 01:10:07;;;;;;;30.43;16.63;;;2.50;99.90;;;;;;5020121;28;20215;-48
2022/11/23 01:12:34;;;;;;;31.17;16.43;;;2.50;99.90;;;;;;5020948;28;20204;-47
2022/11/23 01:15:01;;;;;;;31.07;17.77;;;2.50;99.90;;;;;;5004515;28;20227;-47
2022/11/23 01:17:28;;;;;;;28.80;15.70;;;2.60;99.90;;;;;;5013358;28;20204;-47
2022/11/23 01:19:57;;;;;;;29.50;15.87;;;2.60;99.90;;;;;;5016338;28;20212;-51
2022/11/23 01:22:24;;;;;;;30.73;16.30;;;2.60;99.90;;;;;;5018841;28;20204;-48
2022/11/23 01:24:51;;;;;;;26.47;15.77;;;2.60;99.90;;;;;;5023038;28;20223;-46
2022/11/23 01:27:18;;;;;;;29.20;16.17;;;2.60;99.90;;;;;;5018932;28;20479;-45
2022/11/23 01:29:45;;;;;;;27.43;15.57;;;2.70;99.90;;;;;;5008709;28;20212;-47
2022/11/23 01:32:12;;;;;;;29.40;15.73;;;2.60;99.90;;;;;;5009310;28;20870;-47
2022/11/23 01:34:39;;;;;;;27.53;16.27;;;2.70;99.90;;;;;;5018201;28;20287;-45
2022/11/23 01:37:07;;;;;;;26.30;16.57;;;2.70;99.90;;;;;;5023685;28;20211;-48
2022/11/23 01:39:35;;;;;;;27.10;15.50;;;2.70;99.90;;;;;;5026188;28;20315;-51
2022/11/23 01:42:05;;;;;;;32.83;16.17;;;2.70;99.90;;;;;;5022971;28;20258;-51
2022/11/23 01:44:34;;;;;;;27.53;14.97;;;2.70;99.90;;;;;;5024734;28;20262;-49
2022/11/23 01:47:03;;;;;;;30.83;16.50;;;2.70;99.90;;;;;;5009805;28;20262;-51
2022/11/23 01:49:38;;;;;;;25.73;15.10;;;2.70;99.90;;;;;;5013665;28;20459;-46
2022/11/23 01:52:10;;;;;;;25.67;15.53;;;2.70;99.90;;;;;;5023419;28;20640;-50
2022/11/23 01:54:59;;;;;;;26.37;14.00;;;2.80;99.90;;;;;;5025022;28;20234;-50
2022/11/23 01:57:30;;;;;;;31.00;15.87;;;2.80;99.90;;;;;;5024424;28;20196;-50
2022/11/23 01:59:58;;;;;;;29.47;14.93;;;2.80;99.90;;;;;;5018603;28;20719;-52
2022/11/23 02:02:27;;;;;;;25.60;15.83;;;2.80;99.90;;;;;;5014048;28;20928;-47
2022/11/23 02:04:56;;;;;;;26.13;14.63;;;2.80;99.90;;;;;;5019033;28;20223;-52
2022/11/23 02:07:25;;;;;;;26.33;15.00;;;2.80;99.90;;;;;;5012135;28;21027;-48
2022/11/23 02:09:52;;;;;;;25.70;15.13;;;2.80;99.90;;;;;;5024804;28;20203;-47
2022/11/23 02:12:19;;;;;;;26.20;14.00;;;2.80;99.90;;;;;;5021131;28;20195;-47
2022/11/23 02:14:46;;;;;;;27.83;15.27;;;2.80;99.90;;;;;;5026258;28;20203;-44
2022/11/23 02:17:13;;;;;;;27.47;14.87;;;2.80;99.90;;;;;;5006937;28;20200;-49
2022/11/23 02:19:51;;;;;;;27.57;15.23;;;2.90;99.90;;;;;;5019403;28;20302;-45
2022/11/23 02:22:29;;;;;;;25.77;14.17;;;2.90;99.90;;;;;;5007073;28;20208;-50
2022/11/23 02:24:56;;;;;;;24.37;14.50;;;2.90;99.90;;;;;;5025257;28;20225;-49
2022/11/23 02:27:27;;;;;;;28.33;14.43;;;2.90;99.90;;;;;;5022496;28;20199;-47
2022/11/23 02:29:55;;;;;;;26.57;14.60;;;2.90;99.90;;;;;;5025586;28;20568;-49
2022/11/23 02:32:24;;;;;;;25.50;14.63;;;2.90;99.90;;;;;;5006455;28;20200;-51
2022/11/23 02:34:55;;;;;;;26.27;14.63;;;2.90;99.90;;;;;;5016328;28;20256;-47
2022/11/23 02:37:23;;;;;;;24.90;13.50;;;3.00;99.90;;;;;;5016703;28;20920;-50
2022/11/23 02:39:54;;;;;;;24.07;14.63;;;3.00;99.90;;;;;;5024130;28;20270;-48
2022/11/23 02:42:21;;;;;;;21.90;13.97;;;3.00;99.90;;;;;;5022097;28;20727;-46
2022/11/23 02:44:58;;;;;;;26.40;13.40;;;3.00;99.90;;;;;;5025382;28;20641;-49
2022/11/23 02:47:26;;;;;;;25.70;14.17;;;3.00;99.90;;;;;;5006190;28;20203;-46
2022/11/23 02:49:53;;;;;;;25.73;14.33;;;3.00;99.90;;;;;;5023881;28;20204;-47
2022/11/23 02:52:20;;;;;;;24.90;13.77;;;3.00;99.90;;;;;;5021279;28;20208;-46
2022/11/23 02:54:47;;;;;;;28.33;15.33;;;3.00;99.90;;;;;;5023928;28;20288;-49
2022/11/23 02:57:16;;;;;;;29.17;14.60;;;3.00;99.90;;;;;;5021398;28;20305;-46
2022/11/23 02:59:45;;;;;;;25.40;14.63;;;3.00;99.90;;;;;;5023877;28;20235;-46
2022/11/23 03:02:13;;;;;;;22.47;13.10;;;3.00;99.90;;;;;;5004606;28;20262;-49
2022/11/23 03:04:40;;;;;;;23.43;14.33;;;3.10;99.90;;;;;;5023618;28;20254;-48
2022/11/23 03:07:07;;;;;;;26.60;14.87;;;3.10;99.90;;;;;;5005490;28;20216;-48
2022/11/23 03:09:34;;;;;;;26.57;15.23;;;3.10;99.90;;;;;;5021481;28;20223;-48
2022/11/23 03:12:02;;;;;;;24.67;14.53;;;3.10;99.90;;;;;;5020984;28;20291;-51
2022/11/23 03:14:30;;;;;;;26.07;14.07;;;3.10;99.90;;;;;;5023560;28;20191;-49
2022/11/23 03:17:00;;;;;;;26.27;14.33;;;3.10;99.90;;;;;;5015326;28;20196;-48
2022/11/23 03:19:34;;;;;;;21.57;13.60;;;3.10;99.90;;;;;;5020342;28;20613;-47
2022/11/23 03:22:01;;;;;;;26.53;14.13;;;3.10;99.90;;;;;;5012709;28;20235;-49
2022/11/23 03:24:31;;;;;;;24.00;14.97;;;3.10;99.90;;;;;;5010708;28;20196;-47
2022/11/23 03:26:59;;;;;;;24.10;15.00;;;3.10;99.90;;;;;;5021858;28;20204;-49
2022/11/23 03:29:26;;;;;;;28.53;14.87;;;3.20;99.90;;;;;;5022507;28;20202;-48
2022/11/23 03:31:56;;;;;;;25.30;14.33;;;3.10;99.90;;;;;;5022363;28;20204;-53
2022/11/23 03:34:23;;;;;;;23.47;13.83;;;3.10;99.90;;;;;;5005978;28;20207;-48
2022/11/23 03:36:52;;;;;;;24.27;13.87;;;3.20;99.90;;;;;;5023010;28;20299;-46
2022/11/23 03:39:20;;;;;;;22.50;13.77;;;3.20;99.90;;;;;;5008514;28;20424;-46
2022/11/23 03:42:03;;;;;;;26.20;14.03;;;3.20;99.90;;;;;;5007494;28;20676;-51
2022/11/23 03:44:33;;;;;;;28.13;14.57;;;3.20;99.90;;;;;;5006205;28;20236;-47
2022/11/23 03:47:01;;;;;;;25.33;14.70;;;3.20;99.90;;;;;;5018517;28;20214;-46
2022/11/23 03:49:28;;;;;;;27.13;14.10;;;3.20;99.90;;;;;;4995211;28;20274;-46
2022/11/23 03:51:56;;;;;;;29.10;14.57;;;3.20;99.90;;;;;;5022751;28;20204;-49
2022/11/23 03:54:23;;;;;;;29.20;15.00;;;3.20;99.90;;;;;;5009954;28;20223;-52
2022/11/23 03:56:50;;;;;;;27.77;14.87;;;3.20;99.90;;;;;;5024243;28;20611;-46
2022/11/23 03:59:18;;;;;;;25.30;14.20;;;3.20;99.90;;;;;;5019114;28;20941;-50
2022/11/23 04:01:45;;;;;;;25.57;15.33;;;3.20;99.90;;;;;;5023931;28;20220;-47
2022/11/23 04:04:20;;;;;;;25.17;16.00;;;3.20;99.90;;;;;;5020882;28;20195;-49
2022/11/23 04:07:20;;;;;;;24.33;13.77;;;3.20;99.90;;;;;;5000739;28;20212;-47
2022/11/23 04:09:51;;;;;;;28.53;16.20;;;3.30;99.90;;;;;;5017387;28;20216;-48
2022/11/23 04:12:54;;;;;;;28.27;15.10;;;3.30;99.90;;;;;;5022125;28;20699;-49
2022/11/23 04:15:21;;;;;;;28.00;15.17;;;3.30;99.90;;;;;;5019721;28;20285;-45
2022/11/23 04:17:48;;;;;;;25.80;14.03;;;3.30;99.90;;;;;;5022791;28;20208;-49
2022/11/23 04:20:15;;;;;;;22.27;14.07;;;3.30;99.90;;;;;;5003629;28;21150;-48
2022/11/23 04:22:44;;;;;;;25.73;15.37;;;3.30;99.90;;;;;;5012444;28;20304;-49
2022/11/23 04:25:11;;;;;;;23.27;14.07;;;3.30;99.90;;;;;;5012787;28;20228;-50
2022/11/23 04:27:38;;;;;;;25.50;14.30;;;3.30;99.90;;;;;;5018118;28;20281;-48
2022/11/23 04:30:05;;;;;;;24.77;14.10;;;3.30;99.90;;;;;;5020694;28;20200;-52
2022/11/23 04:32:32;;;;;;;27.57;15.30;;;3.30;99.90;;;;;;5020923;28;20207;-47
2022/11/23 04:35:00;;;;;;;24.30;15.17;;;3.40;99.90;;;;;;5020266;28;20227;-52
2022/11/23 04:37:27;;;;;;;25.57;13.53;;;3.40;99.90;;;;;;5005116;28;20207;-46
2022/11/23 04:39:55;;;;;;;26.30;14.13;;;3.40;99.90;;;;;;5009341;28;20695;-48
2022/11/23 04:42:41;;;;;;;24.47;14.03;;;3.40;99.90;;;;;;5017220;28;20595;-46
2022/11/23 04:45:10;;;;;;;24.00;14.70;;;3.40;99.90;;;;;;5018495;28;20230;-49
2022/11/23 04:47:37;;;;;;;23.73;12.83;;;3.50;99.90;;;;;;5022003;28;20718;-46
2022/11/23 04:50:10;;;;;;;22.87;13.73;;;3.50;99.90;;;;;;5018052;28;20204;-48
2022/11/23 04:52:37;;;;;;;23.67;14.20;;;3.50;99.90;;;;;;5007642;28;20231;-46
2022/11/23 04:55:10;;;;;;;23.90;13.73;;;3.50;99.90;;;;;;5004455;28;20591;-45
2022/11/23 04:57:45;;;;;;;22.07;13.63;;;3.50;99.90;;;;;;5012238;28;20330;-47
2022/11/23 05:00:14;;;;;;;22.60;12.83;;;3.50;99.90;;;;;;5017892;28;20200;-48
2022/11/23 05:02:41;;;;;;;21.83;14.07;;;3.50;99.90;;;;;;5015404;28;20204;-46
2022/11/23 05:05:15;;;;;;;20.63;12.50;;;3.50;99.90;;;;;;5017613;28;20310;-48
2022/11/23 05:07:43;;;;;;;20.90;13.87;;;3.50;99.90;;;;;;5006834;28;20225;-48
2022/11/23 05:10:11;;;;;;;25.17;13.20;;;3.50;99.90;;;;;;5010748;28;20286;-52
2022/11/23 05:12:39;;;;;;;20.23;13.43;;;3.60;99.90;;;;;;5027112;28;20197;-45
2022/11/23 05:15:08;;;;;;;23.00;12.83;;;3.60;99.90;;;;;;5018478;28;20249;-49
2022/11/23 05:17:37;;;;;;;24.47;12.43;;;3.60;99.90;;;;;;5023085;28;20254;-48
2022/11/23 05:20:11;;;;;;;20.83;13.57;;;3.60;99.90;;;;;;5019426;28;20188;-47
2022/11/23 05:22:42;;;;;;;20.63;12.63;;;3.60;99.90;;;;;;5006201;28;20842;-45
2022/11/23 05:25:15;;;;;;;20.97;12.40;;;3.60;99.90;;;;;;5010651;28;20991;-46
2022/11/23 05:27:45;;;;;;;21.17;13.23;;;3.60;99.90;;;;;;5015120;28;20235;-47
2022/11/23 05:30:14;;;;;;;20.73;12.90;;;3.70;99.90;;;;;;5012485;28;20208;-45
2022/11/23 05:32:41;;;;;;;22.30;13.03;;;3.70;99.90;;;;;;5012039;28;20696;-47
2022/11/23 05:35:09;;;;;;;25.90;12.73;;;3.70;99.90;;;;;;5002477;28;20224;-44
2022/11/23 05:37:38;;;;;;;23.83;12.73;;;3.70;99.90;;;;;;5001391;28;20211;-51
2022/11/23 05:40:09;;;;;;;19.27;11.60;;;3.70;99.90;;;;;;5011371;28;20285;-46
2022/11/23 05:42:38;;;;;;;20.77;12.37;;;3.70;99.90;;;;;;5006896;28;20208;-45
2022/11/23 05:45:13;;;;;;;21.27;12.17;;;3.80;99.90;;;;;;5005851;28;20232;-48
2022/11/23 05:47:50;;;;;;;21.87;12.40;;;3.80;99.90;;;;;;4996542;28;20240;-49
2022/11/23 05:50:23;;;;;;;20.17;11.63;;;3.80;99.90;;;;;;5004983;28;20208;-42
2022/11/23 05:53:11;;;;;;;21.23;11.37;;;3.80;99.90;;;;;;4987963;28;20313;-45
2022/11/23 05:55:38;;;;;;;19.93;12.00;;;3.80;99.90;;;;;;5008915;28;20224;-48
2022/11/23 05:58:06;;;;;;;22.20;11.97;;;3.80;99.90;;;;;;5000805;28;20925;-48
2022/11/23 06:00:35;;;;;;;17.33;10.77;;;3.80;99.90;;;;;;5010312;28;20208;-44
2022/11/23 06:03:04;;;;;;;18.00;12.10;;;3.80;99.90;;;;;;5005996;28;20213;-45
2022/11/23 06:05:32;;;;;;;22.70;13.10;;;3.80;99.90;;;;;;5007593;28;20211;-45
2022/11/23 06:07:59;;;;;;;21.73;12.17;;;3.80;99.90;;;;;;5011437;28;20242;-50
2022/11/23 06:10:27;;;;;;;21.97;12.47;;;3.80;99.90;;;;;;5002048;28;20263;-47
2022/11/23 06:13:01;;;;;;;24.03;11.50;;;3.80;99.90;;;;;;5007031;28;20210;-46
2022/11/23 06:15:29;;;;;;;20.57;11.83;;;3.80;99.90;;;;;;5006545;28;20223;-47
2022/11/23 06:17:59;;;;;;;16.97;11.13;;;3.80;99.90;;;;;;5013061;28;20199;-48
2022/11/23 06:20:31;;;;;;;22.30;13.10;;;3.80;99.90;;;;;;5008029;28;20192;-45
2022/11/23 06:23:01;;;;;;;23.60;12.13;;;3.80;99.90;;;;;;4996003;28;20209;-44
2022/11/23 06:25:28;;;;;;;22.33;12.33;;;3.80;99.90;;;;;;5006723;28;20228;-44
2022/11/23 06:28:05;;;;;;;20.90;12.40;;;3.80;99.90;;;;;;5002673;28;20206;-46
2022/11/23 06:30:46;;;;;;;18.83;11.67;;;3.80;99.90;;;;;;5033370;28;20207;-48
2022/11/23 06:33:14;;;;;;;22.27;13.30;;;3.80;99.90;;;;;;5015547;28;20938;-45
2022/11/23 06:35:53;;;;;;;23.73;12.60;;;3.80;99.90;;;;;;5018362;28;20687;-44
2022/11/23 06:38:21;;;;;;;20.73;11.20;;;3.80;99.90;;;;;;5009774;28;20287;-45
2022/11/23 06:40:57;;;;;;;18.37;11.73;;;3.80;99.90;;;;;;4993823;28;20517;-47
2022/11/23 06:43:24;;;;;;;20.60;12.17;;;3.80;99.90;;;;;;5010849;28;20208;-47
2022/11/23 06:45:52;;;;;;;20.33;11.90;;;3.80;99.90;;;;;;5022059;28;20245;-48
2022/11/23 06:48:20;;;;;;;17.87;10.90;;;3.80;99.90;;;;;;5011902;28;20684;-46
2022/11/23 06:50:48;;;;;;;18.73;11.53;;;3.80;99.90;;;;;;5030757;28;20192;-46
2022/11/23 06:53:16;;;;;;;19.87;11.73;;;3.80;99.90;;;;;;5009404;28;20680;-49
2022/11/23 06:55:47;;;;;;;19.53;11.73;;;3.80;99.90;;;;;;4998865;28;20456;-47
2022/11/23 06:58:17;;;;;;;19.03;12.50;;;3.80;99.90;;;;;;5010842;28;20245;-51
2022/11/23 07:00:44;;;;;;;23.63;11.77;;;3.80;99.90;;;;;;5009387;28;20192;-45
2022/11/23 07:03:19;;;;;;;18.43;11.47;;;3.80;99.90;;;;;;5019998;28;20197;-47
2022/11/23 07:05:49;;;;;;;17.07;11.03;;;3.80;99.90;;;;;;5013796;28;20961;-47
2022/11/23 07:08:18;;;;;;;19.47;12.27;;;3.80;99.90;;;;;;5008946;28;20729;-47
2022/11/23 07:10:44;;;;;;;21.40;12.30;;;3.90;99.90;;;;;;4991221;28;20325;-49
2022/11/23 07:13:15;;;;;;;17.40;12.13;;;3.80;99.90;;;;;;5011479;28;20207;-50
2022/11/23 07:15:43;;;;;;;21.90;10.97;;;3.80;99.90;;;;;;5013472;28;20335;-45
2022/11/23 07:18:12;;;;;;;20.20;11.60;;;3.90;99.90;;;;;;5012829;28;20254;-45
2022/11/23 07:20:46;;;;;;;20.80;12.03;;;3.90;99.90;;;;;;4999040;28;20286;-47
2022/11/23 07:23:13;;;;;;;19.23;11.07;;;3.90;99.90;;;;;;5011219;28;20227;-45
2022/11/23 07:25:41;;;;;;;19.03;11.27;;;3.90;99.90;;;;;;5008187;28;20793;-46
2022/11/23 07:28:08;;;;;;;18.40;11.43;;;3.90;99.90;;;;;;4999106;28;20213;-48
2022/11/23 07:30:36;;;;;;;15.43;10.47;;;4.00;99.90;;;;;;5002380;28;20209;-48
2022/11/23 07:33:07;;;;;;;22.10;12.33;;;4.00;99.90;;;;;;5010693;28;20349;-51
2022/11/23 07:35:36;;;;;;;19.83;11.07;;;4.00;99.90;;;;;;5014047;28;20225;-54
2022/11/23 07:38:06;;;;;;;15.93;11.03;;;4.00;99.90;;;;;;5007234;28;20201;-47
2022/11/23 07:40:34;;;;;;;20.57;10.93;;;4.00;99.90;;;;;;5019900;28;20208;-47
2022/11/23 07:43:02;;;;;;;18.77;11.40;;;4.10;99.90;;;;;;4998557;28;20228;-48
2022/11/23 07:45:29;;;;;;;17.43;10.90;;;4.10;99.90;;;;;;5010704;28;20282;-45
2022/11/23 07:48:00;;;;;;;18.93;10.47;;;4.10;99.90;;;;;;5017452;28;20258;-52
2022/11/23 07:50:27;;;;;;;18.30;11.73;;;4.10;99.90;;;;;;5007896;28;20192;-47
2022/11/23 07:52:53;;;;;;;15.27;10.00;;;4.20;99.90;;;;;;5021998;28;20212;-50
2022/11/23 07:55:22;;;;;;;17.07;10.30;;;4.20;99.90;;;;;;5007313;28;23058;-45
2022/11/23 07:57:52;;;;;;;20.83;11.00;;;4.30;99.90;;;;;;5008909;28;20215;-45
2022/11/23 08:00:20;;;;;;;18.87;11.50;;;4.30;99.90;;;;;;5008504;28;20720;-47
2022/11/23 08:02:47;;;;;;;25.57;10.73;;;4.30;99.90;;;;;;5018162;28;20243;-49
2022/11/23 08:05:14;;;;;;;20.60;10.57;;;4.30;99.90;;;;;;5010300;28;20220;-48
2022/11/23 08:07:41;;;;;;;20.33;11.17;;;4.40;99.90;;;;;;5016584;28;20204;-49
2022/11/23 08:10:08;;;;;;;15.93;10.63;;;4.40;99.90;;;;;;5006726;28;20231;-48
2022/11/23 08:12:37;;;;;;;17.43;11.20;;;4.40;99.90;;;;;;5015490;28;20196;-48
2022/11/23 08:15:04;;;;;;;16.53;10.60;;;4.50;99.90;;;;;;5006014;28;20232;-49
2022/11/23 08:17:32;;;;;;;19.80;10.80;;;4.60;99.90;;;;;;5007342;28;20196;-48
2022/11/23 08:19:58;;;;;;;16.60;10.20;;;4.60;99.90;;;;;;5021187;28;20203;-47
2022/11/23 08:22:26;;;;;;;18.60;9.70;;;4.60;99.90;;;;;;5020464;28;20219;-48
2022/11/23 08:24:53;;;;;;;18.70;10.43;;;4.60;99.90;;;;;;5017798;28;20266;-48
2022/11/23 08:27:43;;;;;;;13.73;9.50;;;4.70;99.90;;;;;;5013517;28;20276;-46
2022/11/23 08:30:11;;;;;;;17.97;9.77;;;4.70;99.90;;;;;;4993349;28;20219;-45
2022/11/23 08:32:37;;;;;;;18.70;11.30;;;4.70;99.90;;;;;;5014748;28;20318;-46
2022/11/23 08:35:05;;;;;;;14.60;9.17;;;4.80;99.90;;;;;;5020567;28;20223;-46
2022/11/23 08:37:32;;;;;;;18.07;9.63;;;4.80;99.90;;;;;;5020830;28;20209;-49
2022/11/23 08:39:59;;;;;;;15.20;9.47;;;4.90;99.90;;;;;;5021299;28;20263;-50
2022/11/23 08:42:26;;;;;;;15.40;9.47;;;4.90;99.90;;;;;;5007506;28;20425;-46
2022/11/23 08:44:54;;;;;;;13.20;8.70;;;5.00;99.90;;;;;;5006937;28;20232;-49
2022/11/23 08:47:21;;;;;;;17.40;8.70;;;5.00;99.90;;;;;;5008780;28;20219;-48
2022/11/23 08:49:48;;;;;;;13.73;9.20;;;5.00;99.90;;;;;;5020301;28;20207;-47
2022/11/23 08:52:15;;;;;;;15.67;8.30;;;5.00;99.90;;;;;;5014455;28;20200;-46
2022/11/23 08:54:41;;;;;;;16.97;8.67;;;5.10;99.90;;;;;;5022984;28;20207;-49
2022/11/23 08:57:08;;;;;;;14.07;8.67;;;5.10;99.90;;;;;;5002290;28;20733;-46
2022/11/23 08:59:35;;;;;;;12.00;7.90;;;5.20;99.90;;;;;;5007003;28;20211;-45
2022/11/23 09:02:03;;;;;;;14.63;8.43;;;5.20;99.90;;;;;;5016861;28;20212;-46
2022/11/23 09:04:30;;;;;;;15.30;8.17;;;5.30;99.90;;;;;;5008267;28;20199;-48
2022/11/23 09:06:57;;;;;;;11.33;7.77;;;5.30;99.90;;;;;;5021044;28;20200;-52
2022/11/23 09:09:24;;;;;;;12.13;7.57;;;5.30;99.90;;;;;;5019436;28;20192;-47
2022/11/23 09:11:52;;;;;;;13.13;7.73;;;5.40;99.90;;;;;;5015252;28;20553;-47
2022/11/23 09:14:20;;;;;;;16.60;8.70;;;5.40;99.90;;;;;;4996060;28;20740;-45
2022/11/23 09:16:47;;;;;;;11.67;7.17;;;5.40;99.90;;;;;;5015589;28;20639;-48
2022/11/23 09:19:16;;;;;;;11.47;6.93;;;5.40;99.90;;;;;;5008603;28;20195;-48
2022/11/23 09:21:42;;;;;;;14.70;8.20;;;5.50;99.90;;;;;;5020144;28;20234;-49
2022/11/23 09:24:10;;;;;;;12.90;7.13;;;5.50;99.90;;;;;;5012780;28;20200;-50
2022/11/23 09:26:37;;;;;;;12.47;7.90;;;5.60;99.90;;;;;;5022187;28;20235;-46
2022/11/23 09:29:04;;;;;;;13.33;7.00;;;5.60;99.90;;;;;;4988643;28;20205;-51
2022/11/23 09:31:30;;;;;;;14.00;7.60;;;5.60;99.90;;;;;;5016709;28;20417;-46
2022/11/23 09:33:57;;;;;;;13.33;7.20;;;5.60;99.90;;;;;;5013359;28;20212;-51
2022/11/23 09:36:26;;;;;;;10.20;6.67;;;5.70;99.90;;;;;;5008870;28;20215;-48
2022/11/23 09:38:53;;;;;;;9.73;6.50;;;5.70;99.90;;;;;;5012318;28;20197;-52
2022/11/23 09:41:51;;;;;;;10.00;6.77;;;5.80;99.90;;;;;;5016465;28;20219;-51
2022/11/23 09:44:24;;;;;;;11.83;6.13;;;5.90;99.90;;;;;;5005535;28;20316;-52
2022/11/23 09:47:05;;;;;;;8.57;6.40;;;6.00;99.90;;;;;;5004151;28;20238;-48
2022/11/23 09:49:39;;;;;;;12.73;6.23;;;6.10;99.90;;;;;;5017856;28;20196;-47
2022/11/23 09:52:16;;;;;;;10.37;6.00;;;6.20;99.90;;;;;;5010704;28;20581;-47
2022/11/23 09:54:45;;;;;;;9.07;5.97;;;6.20;99.90;;;;;;5013294;28;20211;-46
2022/11/23 09:57:14;;;;;;;11.40;5.80;;;6.30;99.90;;;;;;5014811;28;20878;-48
2022/11/23 09:59:44;;;;;;;7.10;4.80;;;6.30;99.90;;;;;;5015484;28;20287;-46
2022/11/23 10:02:20;;;;;;;5.93;4.97;;;6.40;99.90;;;;;;5007275;28;20278;-50
2022/11/23 10:04:47;;;;;;;13.00;5.20;;;6.50;99.90;;;;;;5017560;28;20204;-50
2022/11/23 10:07:40;;;;;;;10.83;5.83;;;6.50;99.90;;;;;;5013914;28;20204;-46
2022/11/23 10:10:18;;;;;;;13.07;5.97;;;6.50;99.90;;;;;;5015896;28;20227;-49
2022/11/23 10:12:51;;;;;;;7.27;5.07;;;6.50;99.90;;;;;;5018011;28;20189;-47
2022/11/23 10:15:24;;;;;;;11.87;5.27;;;6.60;99.90;;;;;;5008642;28;20322;-46
2022/11/23 10:18:24;;;;;;;7.73;5.63;;;6.60;99.90;;;;;;5005422;28;20274;-47
2022/11/23 10:21:01;;;;;;;7.93;5.20;;;6.60;99.90;;;;;;5014003;28;20233;-51
2022/11/23 10:23:46;;;;;;;9.30;5.63;;;6.70;99.90;;;;;;5019014;28;20294;-47
2022/11/23 10:26:17;;;;;;;11.33;5.17;;;6.70;99.90;;;;;;5011652;28;20216;-47
2022/11/23 10:28:46;;;;;;;7.07;5.60;;;6.60;99.90;;;;;;5006911;28;20203;-50
2022/11/23 10:31:16;;;;;;;10.17;5.30;;;6.70;99.90;;;;;;5018696;28;20204;-52
2022/11/23 10:33:53;;;;;;;5.87;5.23;;;6.70;99.90;;;;;;5006839;28;20330;-47
2022/11/23 10:36:20;;;;;;;6.47;5.07;;;6.70;99.90;;;;;;5018325;28;20274;-48
2022/11/23 10:38:50;;;;;;;9.17;5.07;;;6.80;99.90;;;;;;5020475;28;20200;-49
2022/11/23 10:41:18;;;;;;;6.67;4.77;;;6.80;99.90;;;;;;5018232;28;20208;-47
2022/11/23 10:44:18;;;;;;;8.60;5.17;;;6.90;99.90;;;;;;5016335;28;20247;-47
2022/11/23 10:46:45;;;;;;;8.47;4.90;;;6.90;99.90;;;;;;5001555;28;20336;-46
2022/11/23 10:49:20;;;;;;;7.47;4.63;;;6.90;99.90;;;;;;5003953;28;20208;-48
2022/11/23 10:51:52;;;;;;;8.73;5.30;;;7.00;99.90;;;;;;5014432;28;20200;-46
2022/11/23 10:54:25;;;;;;;9.10;4.87;;;7.00;99.90;;;;;;5018506;28;20238;-45
2022/11/23 10:56:54;;;;;;;9.60;4.50;;;7.10;99.90;;;;;;5018030;28;20230;-50
2022/11/23 10:59:33;;;;;;;9.10;4.40;;;7.20;99.90;;;;;;5018408;28;20203;-51
2022/11/23 11:02:11;;;;;;;9.37;4.23;;;7.20;99.90;;;;;;5007377;28;20539;-47
2022/11/23 11:04:38;;;;;;;9.33;4.20;;;7.20;99.90;;;;;;5010098;28;20204;-47
2022/11/23 11:07:21;;;;;;;8.53;4.67;;;7.30;99.90;;;;;;5005463;28;20267;-44
2022/11/23 11:10:00;;;;;;;8.53;4.67;;;7.30;99.90;;;;;;5012448;28;20295;-49
2022/11/23 11:12:30;;;;;;;6.43;4.57;;;7.30;99.90;;;;;;5019834;28;20188;-47
2022/11/23 11:15:01;;;;;;;6.13;3.77;;;7.30;99.90;;;;;;5012237;28;20757;-51
2022/11/23 11:17:30;;;;;;;7.23;4.20;;;7.30;99.90;;;;;;5020361;28;20395;-47
2022/11/23 11:19:58;;;;;;;6.97;4.23;;;7.40;99.90;;;;;;5009321;28;20216;-50
2022/11/23 11:22:34;;;;;;;6.80;3.87;;;7.40;99.90;;;;;;5008644;28;20615;-49
2022/11/23 11:25:04;;;;;;;3.97;3.40;;;7.40;99.90;;;;;;5017731;28;20223;-50
2022/11/23 11:27:32;;;;;;;3.83;3.53;;;7.50;99.90;;;;;;5023149;28;20194;-45
2022/11/23 11:30:06;;;;;;;5.73;3.70;;;7.50;99.90;;;;;;5023388;28;20200;-51
2022/11/23 11:32:42;;;;;;;7.70;4.23;;;7.50;99.90;;;;;;5023214;28;20192;-45
2022/11/23 11:35:14;;;;;;;7.07;4.07;;;7.50;99.90;;;;;;5000662;28;20235;-44
2022/11/23 11:37:44;;;;;;;8.20;4.10;;;7.50;99.90;;;;;;5015049;28;20650;-46
2022/11/23 11:40:21;;;;;;;7.53;3.47;;;7.50;99.90;;;;;;5014519;28;20212;-45
2022/11/23 11:42:54;;;;;;;6.97;4.00;;;7.50;99.90;;;;;;5017033;28;20230;-45
2022/11/23 11:45:25;;;;;;;6.53;3.53;;;7.50;99.90;;;;;;5020497;28;20226;-49
2022/11/23 11:47:59;;;;;;;6.13;4.03;;;7.50;99.90;;;;;;5010120;28;20207;-47
2022/11/23 11:50:33;;;;;;;9.00;4.20;;;7.50;99.90;;;;;;5009367;28;20760;-45
2022/11/23 11:53:06;;;;;;;7.83;4.33;;;7.50;99.90;;;;;;5002925;28;20209;-53
2022/11/23 11:55:47;;;;;;;7.03;4.37;;;7.60;99.90;;;;;;5018220;28;20220;-48
2022/11/23 11:58:17;;;;;;;5.13;4.10;;;7.60;99.90;;;;;;5000751;28;20246;-47
2022/11/23 12:00:47;;;;;;;9.47;3.70;;;7.60;99.90;;;;;;5018286;28;20267;-45
2022/11/23 12:03:26;;;;;;;8.03;4.50;;;7.60;99.90;;;;;;5009645;28;20224;-47
2022/11/23 12:05:58;;;;;;;7.10;4.47;;;7.60;99.90;;;;;;5006516;28;20227;-44
2022/11/23 12:08:35;;;;;;;6.20;4.70;;;7.60;99.90;;;;;;5020189;28;20905;-46
2022/11/23 12:11:04;;;;;;;4.40;4.00;;;7.60;99.90;;;;;;5016670;28;20203;-46
2022/11/23 12:13:35;;;;;;;5.70;4.50;;;7.70;99.90;;;;;;5007168;28;20708;-46
2022/11/23 12:16:10;;;;;;;6.33;4.13;;;7.70;99.90;;;;;;5019001;28;20220;-48
2022/11/23 12:18:51;;;;;;;7.23;4.80;;;7.70;99.90;;;;;;5015951;28;20214;-45
2022/11/23 12:21:38;;;;;;;6.57;3.93;;;7.70;99.90;;;;;;4999529;28;20204;-47
2022/11/23 12:24:14;;;;;;;6.87;4.20;;;7.80;99.90;;;;;;5006583;28;20225;-46
2022/11/23 12:26:51;;;;;;;7.63;4.23;;;7.80;99.90;;;;;;5013313;28;20239;-48
2022/11/23 12:29:37;;;;;;;6.13;4.53;;;7.70;99.90;;;;;;5016904;28;20424;-46
2022/11/23 12:32:14;;;;;;;7.67;4.43;;;7.70;99.90;;;;;;5019474;28;20291;-45
2022/11/23 12:35:07;;;;;;;5.53;3.80;;;7.70;99.90;;;;;;5011002;28;20666;-48
2022/11/23 12:37:44;;;;;;;6.17;3.67;;;7.60;99.90;;;;;;5009201;28;20254;-47
2022/11/23 12:40:39;;;;;;;8.50;4.03;;;7.60;99.90;;;;;;5013130;28;22881;-46
2022/11/23 12:43:13;;;;;;;5.20;3.77;;;7.60;99.90;;;;;;5010266;28;20236;-45
2022/11/23 12:45:52;;;;;;;7.97;5.07;;;7.60;99.90;;;;;;5017674;28;20224;-50
2022/11/23 12:48:41;;;;;;;5.83;4.47;;;7.70;99.90;;;;;;5020612;28;20196;-48
2022/11/23 12:51:17;;;;;;;6.73;3.87;;;7.70;99.90;;;;;;5013917;28;20227;-46
2022/11/23 12:53:53;;;;;;;7.50;4.37;;;7.70;99.90;;;;;;5007876;28;20213;-50
2022/11/23 12:56:36;;;;;;;7.00;4.30;;;7.80;99.90;;;;;;5016367;28;20325;-46
2022/11/23 12:59:09;;;;;;;8.30;4.30;;;8.00;99.90;;;;;;5012769;28;20203;-46
2022/11/23 13:01:39;;;;;;;3.97;3.43;;;8.10;99.90;;;;;;5011125;28;20211;-46